Huvudsida
METAR-TAF:

METAR-TAF

Flygplatser :

Almirante Padilla Airport

Riohacha, Colombia

latitud: 11-32N, longitud: 072-56W, höjd: 4 m

Aktuellt väderrapport

Denna rapport gjordes för 30 timmar och 52 minuter sedan, klockan 15:00 UTC
Vind 14 kt från ost
Temperatur 33°C
Fuktighet 53%
Tryck 1013 hPa
Sikt 10 km eller mer
Spridda moln på en höjd av 2000 ft

METAR: SKRH 171500Z 09014KT 9999 SCT020 33/22 A2992

Tid: 16:52 (21:52 UTC)


TAF: saknas

Aktuella väderrapporter och prognoser från 4000 flygplatser (METAR- och TAF-rapporter).

De tillgängliga stationerna syns som gula och röda prickar på kartan.

För musen över prickarna för att se namnen på stationerna.

Klicka sedan för att få väderrapporter och prognoser.

För att ändra kartan: Klicka på de gröna knapparna med ett svart kors på för att zooma in; den gröna knappen med ett streck på för att zooma ut; eller på de gröna pilarna för angränsande kartor.


METAR-TAF: